Alder Creek, New York
Current Conditions -  °F | °C
As of 7:53 PM on Friday 19 Dec 2014 (Local Time) from KRME Reporting Station
Overcast Overcast  
Wind Chill: 15°   Ceiling: 1700
Heat Index: 25°   Visibility: 10mi
Dew Point: 20°   Wind: 10mph
Humidity: 81%   Direction: 330°NNW
Pressure: 30.23"   Gusts: NA
Location:  43.42°N, 75.23°W
Report Text: KRME 200053Z 33009KT 10SM OVC017 M04/M07 A3023 RMK AO2 SLP244 T10391067
Loading
Personal Weather Stations






























Interactive Weather Map New forecast layout! Learn more

10-Day Weather Forecast

Advertisements
Track Severe Weather on mobile